Time;durP1;ratioP1;P1;durP2;ratioP2;P2;SDS_P1;SDS_P2;PMS_P1;PMS_P2;Temp;Humidity;BMP_temperature;BMP_pressure;BME280_temperature;BME280_humidity;BME280_pressure;Samples;Min_cycle;Max_cycle;Signal;HPM_P1;HPM_P2
2023/08/03 00:00:18;;;;;;;20.15;3.90;;;16.30;99.90;;;;;;5052158;28;20094;-69
2023/08/03 00:02:45;;;;;;;4.43;2.03;;;16.20;99.90;;;;;;5051955;28;20041;-67
2023/08/03 00:05:11;;;;;;;19.95;3.72;;;16.20;99.90;;;;;;5051739;28;20393;-68
2023/08/03 00:07:36;;;;;;;17.70;4.22;;;16.20;99.90;;;;;;5052048;28;20052;-68
2023/08/03 00:10:02;;;;;;;6.70;2.80;;;16.10;99.90;;;;;;5052694;28;20075;-67
2023/08/03 00:12:28;;;;;;;3.67;2.38;;;16.10;99.90;;;;;;5052540;28;20099;-69
2023/08/03 00:14:54;;;;;;;3.92;1.90;;;16.20;99.90;;;;;;5052552;28;20435;-68
2023/08/03 00:17:20;;;;;;;3.33;2.00;;;16.20;99.90;;;;;;5051693;28;20370;-67
2023/08/03 00:19:46;;;;;;;4.20;2.08;;;16.20;99.90;;;;;;5052049;28;20049;-66
2023/08/03 00:22:11;;;;;;;3.13;2.28;;;16.20;99.90;;;;;;5051976;28;20103;-66
2023/08/03 00:24:37;;;;;;;5.15;2.40;;;16.20;99.90;;;;;;5052218;28;20044;-67
2023/08/03 00:27:03;;;;;;;3.15;1.85;;;16.10;99.90;;;;;;5052116;28;20060;-69
2023/08/03 00:29:29;;;;;;;5.13;2.22;;;16.10;99.90;;;;;;5051949;28;20045;-68
2023/08/03 00:31:54;;;;;;;3.00;2.70;;;16.20;99.90;;;;;;5052307;28;20047;-66
2023/08/03 00:34:20;;;;;;;3.03;1.70;;;16.20;99.90;;;;;;5052447;28;20048;-67
2023/08/03 00:36:46;;;;;;;3.40;2.08;;;16.20;99.90;;;;;;5051678;28;20508;-67
2023/08/03 00:39:11;;;;;;;5.53;2.67;;;16.20;99.90;;;;;;5055396;28;20159;-66
2023/08/03 00:41:37;;;;;;;2.60;2.25;;;16.20;99.90;;;;;;5020952;28;20051;-66
2023/08/03 00:44:03;;;;;;;6.22;3.80;;;16.10;99.90;;;;;;5055196;28;20545;-67
2023/08/03 00:46:29;;;;;;;4.47;1.92;;;16.20;99.90;;;;;;5037654;28;20120;-68
2023/08/03 00:48:55;;;;;;;3.88;2.17;;;16.20;99.90;;;;;;5055042;28;20116;-66
2023/08/03 00:51:21;;;;;;;3.30;2.28;;;16.20;99.90;;;;;;5055175;28;20107;-66
2023/08/03 00:53:46;;;;;;;3.10;2.20;;;16.30;99.90;;;;;;5055034;28;20041;-66
2023/08/03 00:56:12;;;;;;;4.75;2.10;;;16.20;99.90;;;;;;5055538;28;20044;-66
2023/08/03 00:58:39;;;;;;;7.18;2.30;;;16.20;99.90;;;;;;5055239;28;20044;-68
2023/08/03 01:01:05;;;;;;;3.88;2.13;;;16.30;99.90;;;;;;5037201;28;20054;-67
2023/08/03 01:03:32;;;;;;;4.95;2.28;;;16.30;99.90;;;;;;5037160;28;20060;-67
2023/08/03 01:05:58;;;;;;;3.28;2.20;;;16.30;99.90;;;;;;5054751;28;20052;-66
2023/08/03 01:08:24;;;;;;;3.88;2.03;;;16.30;99.90;;;;;;5055670;28;20099;-66
2023/08/03 01:10:51;;;;;;;7.15;2.67;;;16.40;99.90;;;;;;5054783;28;20095;-66
2023/08/03 01:13:17;;;;;;;7.97;2.05;;;16.40;99.90;;;;;;5054709;28;20044;-66
2023/08/03 01:15:43;;;;;;;5.38;2.13;;;16.40;99.90;;;;;;5054804;28;20094;-67
2023/08/03 01:18:08;;;;;;;6.97;2.70;;;16.40;99.90;;;;;;5055024;28;20048;-68
2023/08/03 01:20:36;;;;;;;8.48;2.60;;;16.40;99.90;;;;;;5036868;28;20048;-66
2023/08/03 01:23:06;;;;;;;2.83;1.80;;;16.40;99.90;;;;;;5054527;28;20049;-66
2023/08/03 01:25:32;;;;;;;3.80;2.38;;;16.40;99.90;;;;;;5036763;28;20064;-67
2023/08/03 01:27:58;;;;;;;2.35;1.77;;;16.30;99.90;;;;;;5054242;28;20075;-66
2023/08/03 01:30:24;;;;;;;3.25;1.70;;;16.30;99.90;;;;;;5036559;28;20053;-67
2023/08/03 01:32:50;;;;;;;4.15;2.25;;;16.30;99.90;;;;;;5054317;28;20057;-68
2023/08/03 01:35:16;;;;;;;4.32;1.40;;;16.30;99.90;;;;;;5054298;28;20071;-66
2023/08/03 01:37:42;;;;;;;3.20;1.67;;;16.30;99.90;;;;;;5054527;28;20045;-67
2023/08/03 01:40:10;;;;;;;2.83;1.58;;;16.30;99.90;;;;;;5054486;28;20053;-66
2023/08/03 01:42:36;;;;;;;15.48;2.90;;;16.30;99.90;;;;;;5036540;28;20509;-67
2023/08/03 01:45:05;;;;;;;12.52;2.40;;;16.30;99.90;;;;;;5054027;28;20076;-67
2023/08/03 01:47:31;;;;;;;2.78;1.58;;;16.30;99.90;;;;;;5054134;28;20124;-66
2023/08/03 01:49:57;;;;;;;3.30;1.70;;;16.40;99.90;;;;;;5053995;28;20080;-66
2023/08/03 01:52:22;;;;;;;2.58;1.30;;;16.40;99.90;;;;;;5054017;28;20081;-69
2023/08/03 01:54:48;;;;;;;2.00;1.52;;;16.40;99.90;;;;;;5036345;28;20049;-65
2023/08/03 01:57:15;;;;;;;1.63;1.10;;;16.40;99.90;;;;;;5035909;28;20048;-67
2023/08/03 01:59:41;;;;;;;2.70;1.27;;;16.40;99.90;;;;;;5053824;28;20050;-66
2023/08/03 02:02:06;;;;;;;2.67;0.90;;;16.40;99.90;;;;;;5053798;28;20045;-66
2023/08/03 02:04:32;;;;;;;1.65;1.35;;;16.40;99.90;;;;;;5053624;28;20045;-66
2023/08/03 02:07:14;;;;;;;2.53;1.48;;;16.40;99.90;;;;;;5053663;28;20052;-66
2023/08/03 02:09:40;;;;;;;1.38;1.10;;;16.40;99.90;;;;;;5053861;28;20056;-67
2023/08/03 02:12:06;;;;;;;3.15;1.45;;;16.40;99.90;;;;;;5053601;28;20051;-67
2023/08/03 02:14:32;;;;;;;2.13;1.48;;;16.50;99.90;;;;;;5053580;28;20037;-66
2023/08/03 02:16:57;;;;;;;3.60;1.50;;;16.40;99.90;;;;;;5053782;28;20128;-66
2023/08/03 02:19:23;;;;;;;3.00;1.13;;;16.40;99.90;;;;;;5053180;28;20480;-66
2023/08/03 02:21:49;;;;;;;3.05;1.17;;;16.40;99.90;;;;;;5053540;28;20045;-67
2023/08/03 02:24:14;;;;;;;1.33;1.08;;;16.50;99.90;;;;;;5053376;28;20485;-67
2023/08/03 02:26:40;;;;;;;2.10;1.40;;;16.50;99.90;;;;;;5053638;28;20079;-67
2023/08/03 02:29:05;;;;;;;4.70;1.55;;;16.50;99.90;;;;;;5036014;28;20045;-66
2023/08/03 02:31:31;;;;;;;1.35;1.05;;;16.50;99.90;;;;;;5036152;28;20045;-67
2023/08/03 02:33:57;;;;;;;3.67;1.23;;;16.50;99.90;;;;;;5052913;28;20051;-66
2023/08/03 02:36:22;;;;;;;1.77;1.45;;;16.50;99.90;;;;;;5053206;28;20045;-66
2023/08/03 02:38:48;;;;;;;1.30;1.20;;;16.50;99.90;;;;;;5036184;28;20478;-66
2023/08/03 02:41:14;;;;;;;2.53;1.20;;;16.50;99.90;;;;;;5053120;28;20123;-66
2023/08/03 02:43:39;;;;;;;1.83;1.40;;;16.50;99.90;;;;;;5053138;28;20040;-66
2023/08/03 02:46:05;;;;;;;1.38;1.27;;;16.50;99.90;;;;;;5053567;28;20056;-67
2023/08/03 02:48:31;;;;;;;2.95;1.50;;;16.40;99.90;;;;;;5053027;28;20343;-65
2023/08/03 02:50:57;;;;;;;2.42;1.40;;;16.50;99.90;;;;;;5052635;28;20128;-65
2023/08/03 02:53:23;;;;;;;1.83;1.33;;;16.60;99.90;;;;;;5035350;28;20084;-66
2023/08/03 02:55:50;;;;;;;1.45;1.35;;;16.50;99.90;;;;;;5053049;28;20052;-66
2023/08/03 02:58:16;;;;;;;3.08;1.45;;;16.50;99.90;;;;;;5052784;28;20044;-65
2023/08/03 03:00:42;;;;;;;3.00;1.50;;;16.50;99.90;;;;;;5052886;28;20041;-67
2023/08/03 03:03:07;;;;;;;3.00;1.90;;;16.50;99.90;;;;;;5053017;28;20497;-65
2023/08/03 03:05:33;;;;;;;2.60;1.65;;;16.60;99.90;;;;;;5052629;28;20040;-66
2023/08/03 03:07:58;;;;;;;1.88;1.70;;;16.50;99.90;;;;;;5019165;28;20048;-66
2023/08/03 03:10:24;;;;;;;3.08;1.67;;;16.40;99.90;;;;;;5052297;28;20119;-67
2023/08/03 03:12:50;;;;;;;8.55;2.00;;;16.50;99.90;;;;;;5052495;28;20044;-66
2023/08/03 03:15:16;;;;;;;1.50;1.33;;;16.50;99.90;;;;;;5052835;28;20106;-66
2023/08/03 03:17:42;;;;;;;2.92;1.63;;;16.50;99.90;;;;;;5052499;28;20041;-67
2023/08/03 03:20:09;;;;;;;2.63;1.85;;;16.50;99.90;;;;;;5052431;28;20053;-66
2023/08/03 03:22:37;;;;;;;2.00;1.38;;;16.50;99.90;;;;;;5052580;28;20048;-67
2023/08/03 03:25:04;;;;;;;3.10;2.20;;;16.50;99.90;;;;;;5052226;28;20048;-66
2023/08/03 03:27:30;;;;;;;3.50;2.00;;;16.50;99.90;;;;;;5051846;28;20379;-68
2023/08/03 03:29:55;;;;;;;3.85;2.15;;;16.40;99.90;;;;;;5052351;28;20075;-66
2023/08/03 03:32:21;;;;;;;2.65;2.45;;;16.50;99.90;;;;;;5052427;28;20049;-66
2023/08/03 03:34:47;;;;;;;2.85;2.42;;;16.50;99.90;;;;;;5052362;28;20098;-66
2023/08/03 03:37:13;;;;;;;5.57;2.45;;;16.40;99.90;;;;;;5052184;28;20116;-66
2023/08/03 03:39:39;;;;;;;5.43;3.35;;;16.40;99.90;;;;;;5052583;28;20041;-66
2023/08/03 03:42:05;;;;;;;6.05;3.22;;;16.40;99.90;;;;;;5035303;28;20053;-67
2023/08/03 03:44:32;;;;;;;5.47;3.78;;;16.40;99.90;;;;;;5052241;28;20056;-66
2023/08/03 03:46:58;;;;;;;3.70;3.40;;;16.50;99.90;;;;;;5052358;28;20553;-66
2023/08/03 03:49:24;;;;;;;4.13;3.83;;;16.50;99.90;;;;;;5052187;28;20087;-66
2023/08/03 03:51:49;;;;;;;3.70;3.30;;;16.50;99.90;;;;;;5052139;28;20056;-68
2023/08/03 03:54:15;;;;;;;3.50;3.20;;;16.50;99.90;;;;;;5052185;28;20052;-66
2023/08/03 03:56:41;;;;;;;3.95;3.65;;;16.50;99.90;;;;;;5001992;28;20049;-66
2023/08/03 03:59:06;;;;;;;4.97;4.43;;;16.50;99.90;;;;;;5052327;28;20045;-66
2023/08/03 04:01:32;;;;;;;5.10;4.18;;;16.50;99.90;;;;;;5052182;28;20139;-66
2023/08/03 04:03:58;;;;;;;4.30;3.88;;;16.50;99.90;;;;;;5034792;28;20053;-65
2023/08/03 04:06:23;;;;;;;6.05;4.88;;;16.60;99.90;;;;;;5034861;28;20040;-68
2023/08/03 04:08:49;;;;;;;6.55;4.38;;;16.60;99.90;;;;;;5052173;28;20110;-66
2023/08/03 04:11:15;;;;;;;7.25;6.45;;;16.50;99.90;;;;;;5035108;28;20091;-67
2023/08/03 04:13:40;;;;;;;10.73;5.95;;;16.50;99.90;;;;;;5055368;28;20103;-67
2023/08/03 04:16:06;;;;;;;8.32;6.35;;;16.50;99.90;;;;;;5055862;28;20041;-66
2023/08/03 04:18:32;;;;;;;7.00;5.63;;;16.50;99.90;;;;;;5055839;28;20049;-66
2023/08/03 04:20:57;;;;;;;7.57;5.45;;;16.40;99.90;;;;;;5037580;28;20080;-66
2023/08/03 04:23:23;;;;;;;8.65;7.07;;;16.50;99.90;;;;;;5055956;28;20083;-67
2023/08/03 04:25:49;;;;;;;8.38;6.70;;;16.40;99.90;;;;;;5055412;28;20045;-68
2023/08/03 04:28:14;;;;;;;9.27;6.40;;;16.40;99.90;;;;;;5055744;28;20143;-67
2023/08/03 04:30:40;;;;;;;8.50;5.35;;;16.30;99.90;;;;;;5055442;28;20052;-68
2023/08/03 04:33:06;;;;;;;7.75;6.30;;;16.40;99.90;;;;;;5037762;28;20082;-67
2023/08/03 04:35:31;;;;;;;9.93;6.32;;;16.40;99.90;;;;;;5037560;28;20037;-66
2023/08/03 04:37:57;;;;;;;8.02;5.63;;;16.40;99.90;;;;;;5054843;28;20182;-66
2023/08/03 04:40:22;;;;;;;7.78;5.60;;;16.40;99.90;;;;;;5055208;28;20048;-66
2023/08/03 04:42:48;;;;;;;8.80;6.93;;;16.50;99.90;;;;;;5055122;28;20059;-66
2023/08/03 04:45:14;;;;;;;11.40;7.32;;;16.40;99.90;;;;;;5055060;28;20080;-65
2023/08/03 04:47:40;;;;;;;9.52;6.60;;;16.40;99.90;;;;;;5055066;28;20084;-68
2023/08/03 04:50:06;;;;;;;11.45;7.20;;;16.30;99.90;;;;;;5020979;28;20052;-67
2023/08/03 04:52:31;;;;;;;10.88;6.47;;;16.40;99.90;;;;;;5037385;28;20098;-66
2023/08/03 04:54:57;;;;;;;11.32;7.32;;;16.50;99.90;;;;;;5054887;28;20056;-66
2023/08/03 04:57:23;;;;;;;10.73;6.30;;;16.50;99.90;;;;;;5037465;28;20041;-65
2023/08/03 04:59:48;;;;;;;9.07;6.00;;;16.60;99.90;;;;;;5020572;28;20041;-66
2023/08/03 05:02:14;;;;;;;20.33;7.97;;;16.70;99.90;;;;;;5054745;28;20045;-66
2023/08/03 05:04:39;;;;;;;14.68;6.10;;;16.70;99.90;;;;;;5036886;28;20053;-67
2023/08/03 05:07:05;;;;;;;12.50;5.88;;;16.70;99.90;;;;;;5054579;28;20135;-67
2023/08/03 05:09:31;;;;;;;6.93;5.13;;;16.60;99.90;;;;;;5020503;28;20074;-66
2023/08/03 05:11:57;;;;;;;4.22;3.50;;;16.70;99.90;;;;;;5054607;28;20049;-66
2023/08/03 05:14:22;;;;;;;5.65;2.85;;;16.60;99.90;;;;;;5054732;28;20567;-66
2023/08/03 05:16:48;;;;;;;6.53;2.95;;;16.60;99.90;;;;;;5054863;28;20407;-65
2023/08/03 05:19:14;;;;;;;4.95;3.60;;;16.60;99.90;;;;;;5036729;28;20163;-65
2023/08/03 05:21:39;;;;;;;5.60;4.63;;;16.50;99.90;;;;;;5054695;28;20056;-66
2023/08/03 05:24:05;;;;;;;11.65;4.22;;;16.60;99.90;;;;;;5054248;28;20080;-67
2023/08/03 05:26:34;;;;;;;7.88;3.25;;;16.60;99.90;;;;;;5019581;28;20089;-66
2023/08/03 05:29:02;;;;;;;6.03;3.35;;;16.60;99.90;;;;;;5054284;28;20049;-67
2023/08/03 05:31:27;;;;;;;5.90;3.10;;;16.50;99.90;;;;;;5054191;28;20489;-65
2023/08/03 05:33:56;;;;;;;8.07;3.20;;;16.50;99.90;;;;;;5036975;28;20049;-68
2023/08/03 05:36:23;;;;;;;3.92;2.92;;;16.60;99.90;;;;;;5053900;28;20438;-67
2023/08/03 05:38:53;;;;;;;6.18;3.40;;;16.60;99.90;;;;;;5053985;28;20045;-65
2023/08/03 05:41:21;;;;;;;4.43;3.40;;;16.60;99.90;;;;;;5054070;28;20045;-66
2023/08/03 05:43:47;;;;;;;7.40;3.50;;;16.50;99.90;;;;;;5053965;28;20051;-67
2023/08/03 05:46:14;;;;;;;6.05;3.53;;;16.60;99.90;;;;;;5053888;28;20041;-66
2023/08/03 05:48:40;;;;;;;7.20;3.88;;;16.60;99.90;;;;;;5053928;28;20057;-66
2023/08/03 05:51:09;;;;;;;6.68;4.25;;;16.60;99.90;;;;;;5054227;28;20049;-65
2023/08/03 05:53:35;;;;;;;6.28;3.80;;;16.60;99.90;;;;;;5053663;28;20041;-66
2023/08/03 05:56:00;;;;;;;8.30;4.35;;;16.70;99.90;;;;;;5035872;28;20063;-65
2023/08/03 05:58:26;;;;;;;7.25;4.32;;;16.70;99.90;;;;;;5036523;28;20049;-65
2023/08/03 06:00:52;;;;;;;8.35;4.97;;;16.70;99.90;;;;;;5036448;28;20048;-65
2023/08/03 06:03:18;;;;;;;7.32;4.00;;;16.70;99.90;;;;;;5053830;28;20049;-65
2023/08/03 06:05:50;;;;;;;4.88;3.83;;;16.80;99.90;;;;;;5036301;28;20037;-66
2023/08/03 06:08:19;;;;;;;6.18;4.35;;;16.90;99.90;;;;;;5053784;28;20123;-67
2023/08/03 06:10:47;;;;;;;9.93;4.00;;;16.90;99.90;;;;;;5053349;28;20047;-67
2023/08/03 06:13:15;;;;;;;7.28;5.53;;;16.50;99.90;;;;;;5053412;28;20163;-65
2023/08/03 06:15:42;;;;;;;6.97;4.80;;;17.00;99.90;;;;;;5053341;28;20049;-66
2023/08/03 06:18:14;;;;;;;6.53;3.60;;;17.10;99.90;;;;;;5053244;28;20080;-66
2023/08/03 06:20:46;;;;;;;7.20;3.78;;;17.20;99.90;;;;;;5053595;28;20060;-67
2023/08/03 06:23:24;;;;;;;7.65;4.75;;;17.30;99.90;;;;;;5053124;28;20044;-67
2023/08/03 06:25:51;;;;;;;8.32;4.50;;;17.40;99.90;;;;;;5052971;28;20044;-67
2023/08/03 06:28:19;;;;;;;5.35;3.78;;;17.50;99.90;;;;;;5053062;28;20140;-67
2023/08/03 06:30:46;;;;;;;5.75;4.20;;;17.50;99.90;;;;;;5036100;28;20130;-67
2023/08/03 06:33:14;;;;;;;5.82;3.80;;;17.60;99.90;;;;;;5052603;28;20048;-67
2023/08/03 06:35:43;;;;;;;6.22;3.92;;;17.60;99.90;;;;;;5034964;28;20052;-68
2023/08/03 06:38:12;;;;;;;6.13;3.80;;;17.70;99.90;;;;;;5052993;28;20055;-67
2023/08/03 06:40:40;;;;;;;5.10;3.95;;;17.70;99.90;;;;;;5053426;28;20120;-67
2023/08/03 06:43:06;;;;;;;9.07;3.67;;;17.80;99.90;;;;;;5052757;28;20382;-68
2023/08/03 06:45:33;;;;;;;4.45;3.35;;;17.80;99.90;;;;;;5053445;28;20041;-67
2023/08/03 06:48:00;;;;;;;4.50;3.33;;;17.80;99.90;;;;;;5052869;28;20061;-69
2023/08/03 06:50:29;;;;;;;3.55;3.20;;;17.80;99.90;;;;;;5035160;28;20420;-67
2023/08/03 06:52:56;;;;;;;7.60;4.75;;;17.90;99.90;;;;;;5052796;28;20170;-67
2023/08/03 06:55:22;;;;;;;4.22;3.70;;;17.80;99.90;;;;;;5052727;28;20037;-68
2023/08/03 06:57:48;;;;;;;3.33;2.95;;;18.00;99.90;;;;;;5052559;28;20472;-67
2023/08/03 07:00:14;;;;;;;3.38;3.08;;;18.00;99.90;;;;;;5052837;28;20045;-66
2023/08/03 07:02:41;;;;;;;4.38;3.00;;;18.10;99.90;;;;;;5052591;28;20100;-68
2023/08/03 07:05:07;;;;;;;3.63;2.50;;;18.30;99.90;;;;;;5034723;28;20041;-66
2023/08/03 07:07:33;;;;;;;3.60;2.78;;;18.50;99.90;;;;;;5052419;28;20148;-67
2023/08/03 07:10:01;;;;;;;4.60;2.67;;;18.50;99.90;;;;;;5052878;28;20045;-67
2023/08/03 07:12:27;;;;;;;3.67;2.20;;;18.70;99.90;;;;;;5052953;28;20079;-67
2023/08/03 07:14:53;;;;;;;2.30;1.80;;;19.70;99.90;;;;;;5053228;28;20045;-68
2023/08/03 07:17:19;;;;;;;4.80;1.90;;;21.00;99.90;;;;;;5052754;28;20413;-67
2023/08/03 07:19:50;;;;;;;2.88;2.25;;;21.80;99.90;;;;;;5052271;28;20520;-70
2023/08/03 07:22:17;;;;;;;2.88;1.77;;;22.10;99.90;;;;;;5052921;28;20052;-67
2023/08/03 07:24:42;;;;;;;3.75;1.92;;;22.10;99.90;;;;;;5052945;28;20108;-66
2023/08/03 07:27:08;;;;;;;2.30;2.00;;;22.00;99.90;;;;;;5052182;28;20105;-68
2023/08/03 07:29:34;;;;;;;3.65;2.03;;;21.50;99.90;;;;;;5052619;28;20114;-67
2023/08/03 07:32:00;;;;;;;3.08;2.00;;;21.50;99.90;;;;;;5052313;28;20478;-67
2023/08/03 07:34:26;;;;;;;2.15;1.95;;;21.40;99.90;;;;;;5052355;28;20060;-67
2023/08/03 07:36:56;;;;;;;4.03;2.15;;;21.30;99.90;;;;;;5034699;28;20045;-67
2023/08/03 07:39:23;;;;;;;2.47;1.50;;;21.70;99.90;;;;;;5052599;28;20056;-69
2023/08/03 07:41:49;;;;;;;1.50;1.40;;;21.40;99.90;;;;;;5052299;28;20048;-67
2023/08/03 07:44:16;;;;;;;1.05;1.05;;;21.20;99.90;;;;;;5052198;28;20075;-69
2023/08/03 07:46:42;;;;;;;2.05;1.40;;;21.20;99.90;;;;;;5053846;28;20048;-67
2023/08/03 07:49:07;;;;;;;1.52;1.42;;;21.50;99.90;;;;;;5038927;28;20383;-67
2023/08/03 07:51:33;;;;;;;1.98;1.35;;;21.50;99.90;;;;;;5056318;28;20048;-67
2023/08/03 07:53:59;;;;;;;1.77;1.10;;;21.50;99.90;;;;;;5038549;28;20052;-68
2023/08/03 07:56:24;;;;;;;2.10;1.10;;;21.40;99.90;;;;;;5022008;28;20116;-68
2023/08/03 07:58:51;;;;;;;1.27;1.17;;;21.80;99.90;;;;;;5056211;28;20048;-68
2023/08/03 08:01:17;;;;;;;1.42;1.33;;;22.80;99.90;;;;;;5056146;28;20053;-67
2023/08/03 08:03:44;;;;;;;1.67;1.30;;;23.70;99.90;;;;;;5038750;28;20045;-68
2023/08/03 08:06:12;;;;;;;2.75;1.08;;;24.40;99.90;;;;;;5055824;28;20044;-68
2023/08/03 08:08:38;;;;;;;1.92;1.40;;;24.60;99.90;;;;;;5055916;28;20048;-68
2023/08/03 08:11:04;;;;;;;2.35;1.10;;;24.20;99.90;;;;;;5055992;28;20048;-68
2023/08/03 08:13:30;;;;;;;2.20;0.98;;;23.80;99.90;;;;;;5056505;28;20041;-70
2023/08/03 08:16:04;;;;;;;1.40;0.90;;;24.20;99.90;;;;;;5055761;28;20091;-68
2023/08/03 08:18:31;;;;;;;2.53;1.42;;;25.30;99.90;;;;;;5055727;28;20049;-70
2023/08/03 08:20:57;;;;;;;3.00;1.00;;;26.10;99.90;;;;;;5056334;28;20458;-68
2023/08/03 08:23:23;;;;;;;2.42;1.13;;;26.80;99.90;;;;;;5037783;28;20049;-67
2023/08/03 08:25:49;;;;;;;2.30;0.75;;;27.10;99.90;;;;;;5055240;28;20171;-67
2023/08/03 08:28:15;;;;;;;1.10;1.00;;;27.50;99.90;;;;;;5034232;28;20053;-68
2023/08/03 08:30:40;;;;;;;1.17;1.00;;;27.50;99.90;;;;;;5035721;28;20513;-68
2023/08/03 08:33:06;;;;;;;3.20;0.80;;;26.60;99.90;;;;;;5035594;28;20076;-68
2023/08/03 08:35:32;;;;;;;2.78;1.20;;;26.50;99.90;;;;;;5035618;28;20095;-67
2023/08/03 08:38:01;;;;;;;1.33;0.95;;;26.70;99.90;;;;;;5035465;28;20041;-67
2023/08/03 08:40:27;;;;;;;2.42;0.80;;;27.30;99.90;;;;;;5034998;28;20508;-67
2023/08/03 08:42:55;;;;;;;1.85;0.90;;;27.60;99.90;;;;;;5035447;28;20176;-68
2023/08/03 08:45:20;;;;;;;1.90;1.20;;;27.20;99.90;;;;;;5035307;28;20040;-67
2023/08/03 08:47:46;;;;;;;3.90;0.90;;;26.90;99.90;;;;;;5035402;28;20045;-67
2023/08/03 08:50:13;;;;;;;2.47;1.00;;;27.00;99.90;;;;;;5034580;28;20056;-67
2023/08/03 08:52:42;;;;;;;4.45;1.35;;;26.60;99.90;;;;;;5034483;28;20128;-68
2023/08/03 08:55:12;;;;;;;0.50;0.50;;;26.00;99.90;;;;;;5035275;28;20038;-67
2023/08/03 08:57:39;;;;;;;2.85;0.80;;;25.40;99.90;;;;;;5034840;28;20531;-67
2023/08/03 09:00:06;;;;;;;1.10;0.90;;;26.00;99.90;;;;;;5035003;28;20045;-67
2023/08/03 09:02:32;;;;;;;1.30;0.70;;;26.70;99.90;;;;;;5035486;28;20058;-67
2023/08/03 09:05:13;;;;;;;2.58;1.45;;;27.10;99.90;;;;;;5034087;28;20054;-67
2023/08/03 09:07:39;;;;;;;1.15;1.00;;;27.80;99.90;;;;;;5035414;28;20443;-69
2023/08/03 09:10:05;;;;;;;2.20;0.80;;;27.40;99.90;;;;;;5034978;28;20068;-67
2023/08/03 09:12:30;;;;;;;2.72;1.38;;;27.60;99.90;;;;;;5018074;28;20081;-67
2023/08/03 09:14:57;;;;;;;3.63;0.77;;;28.20;99.90;;;;;;5034927;28;20088;-67
2023/08/03 09:17:24;;;;;;;0.50;0.50;;;28.40;99.90;;;;;;5034806;28;20053;-67
2023/08/03 09:19:51;;;;;;;1.27;0.90;;;27.30;99.90;;;;;;5034919;28;20045;-67
2023/08/03 09:22:20;;;;;;;4.32;1.10;;;26.30;99.90;;;;;;5034952;28;20081;-67
2023/08/03 09:24:58;;;;;;;1.48;0.80;;;26.20;99.90;;;;;;5034745;28;20045;-67
2023/08/03 09:27:24;;;;;;;2.47;0.80;;;26.80;99.90;;;;;;5039630;28;20045;-69
2023/08/03 09:29:49;;;;;;;1.70;0.88;;;26.90;99.90;;;;;;5054456;28;20502;-67
2023/08/03 09:32:15;;;;;;;0.93;0.68;;;26.70;99.90;;;;;;5054180;28;20076;-68
2023/08/03 09:34:44;;;;;;;2.25;0.70;;;26.90;99.90;;;;;;5020348;28;20053;-67
2023/08/03 09:37:11;;;;;;;2.03;0.75;;;27.30;99.90;;;;;;5054207;28;20146;-67
2023/08/03 09:39:38;;;;;;;1.65;0.82;;;27.70;99.90;;;;;;5037094;28;20045;-67
2023/08/03 09:42:11;;;;;;;2.33;0.95;;;27.30;99.90;;;;;;5036441;28;20091;-68
2023/08/03 09:44:38;;;;;;;;;;;26.80;99.90;;;;;;5037614;28;20087;-67
2023/08/03 09:47:04;;;;;;;5.90;2.17;;;25.80;99.40;;;;;;5054260;28;19947;-67
2023/08/03 09:49:32;;;;;;;4.97;1.08;;;25.40;99.90;;;;;;5054325;28;20045;-69
2023/08/03 09:52:05;;;;;;;1.48;1.00;;;25.00;99.90;;;;;;5054610;28;20044;-66
2023/08/03 09:54:55;;;;;;;2.08;1.00;;;24.80;99.90;;;;;;5036255;28;20508;-68
2023/08/03 09:57:29;;;;;;;3.15;1.40;;;24.40;99.90;;;;;;5054000;28;20041;-67
2023/08/03 10:00:00;;;;;;;2.33;0.80;;;24.10;99.90;;;;;;5054045;28;20045;-66
2023/08/03 10:02:32;;;;;;;6.05;1.20;;;23.90;99.90;;;;;;5054117;28;20041;-66
2023/08/03 10:05:03;;;;;;;2.50;1.42;;;23.70;99.90;;;;;;5054515;28;20072;-66
2023/08/03 10:07:35;;;;;;;2.85;1.50;;;23.50;99.90;;;;;;5036339;28;20063;-66
2023/08/03 10:10:03;;;;;;;;;;;23.70;99.90;;;;;;5020156;28;20072;-66
2023/08/03 10:12:44;;;;;;;4.22;1.55;;;24.10;99.90;;;;;;5036099;28;19927;-67
2023/08/03 10:15:12;;;;;;;5.03;1.80;;;25.10;99.90;;;;;;5053703;28;20495;-67
2023/08/03 10:17:38;;;;;;;3.80;1.40;;;25.90;99.90;;;;;;5053486;28;20092;-66
2023/08/03 10:20:07;;;;;;;2.22;1.55;;;26.40;99.90;;;;;;5053468;28;20045;-65
2023/08/03 10:22:33;;;;;;;2.63;1.45;;;27.00;99.90;;;;;;5054061;28;20128;-67
2023/08/03 10:25:17;;;;;;;3.53;1.27;;;27.20;99.90;;;;;;5053388;28;20521;-67
2023/08/03 10:28:12;;;;;;;4.47;1.17;;;27.60;99.90;;;;;;5053094;28;20418;-67
2023/08/03 10:31:03;;;;;;;2.40;1.33;;;27.50;99.90;;;;;;5053905;28;20386;-66
2023/08/03 10:33:50;;;;;;;4.40;1.00;;;27.60;99.90;;;;;;5053638;28;20049;-67
2023/08/03 10:36:34;;;;;;;3.92;1.40;;;27.80;99.80;;;;;;5053340;28;20486;-67
2023/08/03 10:39:13;;;;;;;2.28;1.75;;;28.00;99.90;;;;;;5053330;28;20056;-67
2023/08/03 10:41:49;;;;;;;3.17;1.10;;;27.70;99.90;;;;;;5053150;28;20133;-67
2023/08/03 10:44:14;;;;;;;4.18;1.40;;;27.10;99.90;;;;;;5053638;28;20126;-68
2023/08/03 10:46:48;;;;;;;2.10;1.55;;;27.00;99.90;;;;;;5052865;28;20467;-66
2023/08/03 10:49:22;;;;;;;7.28;1.40;;;27.30;99.90;;;;;;5052918;28;20130;-67
2023/08/03 10:51:49;;;;;;;1.85;1.13;;;27.90;99.90;;;;;;5035809;28;20067;-66
2023/08/03 10:54:16;;;;;;;3.08;1.88;;;27.60;99.90;;;;;;5052853;28;20106;-67
2023/08/03 10:57:05;;;;;;;3.47;1.20;;;26.80;99.90;;;;;;5053291;28;20056;-68
2023/08/03 10:59:38;;;;;;;1.42;1.33;;;26.30;99.90;;;;;;5035888;28;20075;-66
2023/08/03 11:02:11;;;;;;;;;;;26.60;99.90;;;;;;5053609;28;20376;-67
2023/08/03 11:04:37;;;;;;;3.53;1.20;;;26.50;98.70;;;;;;5052984;28;20281;-67
2023/08/03 11:07:03;;;;;;;1.98;1.30;;;26.80;99.90;;;;;;5052901;28;20052;-67
2023/08/03 11:09:30;;;;;;;2.65;1.40;;;26.70;99.90;;;;;;5053233;28;20064;-68
2023/08/03 11:11:57;;;;;;;1.85;1.30;;;26.70;99.90;;;;;;5052670;28;20053;-66
2023/08/03 11:14:23;;;;;;;4.03;1.83;;;26.50;99.90;;;;;;5052547;28;20048;-66
2023/08/03 11:16:49;;;;;;;2.05;1.38;;;26.50;99.90;;;;;;5052782;28;20528;-65
2023/08/03 11:19:15;;;;;;;2.40;1.20;;;26.40;99.90;;;;;;5052955;28;20080;-67
2023/08/03 11:21:41;;;;;;;2.83;1.58;;;25.90;99.90;;;;;;5051928;28;20445;-67
2023/08/03 11:24:07;;;;;;;4.50;1.23;;;25.20;99.90;;;;;;5052442;28;20080;-66
2023/08/03 11:26:33;;;;;;;4.60;1.65;;;24.60;99.90;;;;;;5052301;28;20072;-68
2023/08/03 11:28:58;;;;;;;2.95;1.38;;;24.30;99.90;;;;;;5051935;28;20550;-66
2023/08/03 11:31:24;;;;;;;2.83;1.45;;;24.10;99.90;;;;;;5052258;28;20059;-67
2023/08/03 11:33:53;;;;;;;3.92;1.90;;;24.10;99.90;;;;;;5035028;28;20515;-67
2023/08/03 11:36:20;;;;;;;7.18;2.17;;;24.10;99.90;;;;;;5052820;28;20060;-69
2023/08/03 11:38:46;;;;;;;4.78;1.50;;;23.90;99.90;;;;;;5051947;28;20044;-67
2023/08/03 11:41:13;;;;;;;4.07;1.75;;;23.80;99.90;;;;;;5052152;28;20045;-67
2023/08/03 11:43:39;;;;;;;7.30;1.77;;;23.50;99.90;;;;;;5052021;28;20083;-67
2023/08/03 11:46:04;;;;;;;2.35;1.88;;;23.20;99.90;;;;;;5051914;28;20041;-69
2023/08/03 11:48:30;;;;;;;2.58;1.77;;;23.10;99.90;;;;;;5052430;28;20055;-69
2023/08/03 11:50:57;;;;;;;6.07;1.52;;;23.00;99.90;;;;;;5052025;28;20082;-67
2023/08/03 11:53:27;;;;;;;3.17;1.40;;;23.00;99.90;;;;;;5052290;28;20060;-67
2023/08/03 11:55:53;;;;;;;4.35;1.45;;;23.10;99.90;;;;;;5051987;28;20057;-68
2023/08/03 11:58:22;;;;;;;4.22;1.10;;;23.00;99.90;;;;;;5051860;28;20159;-69
2023/08/03 12:00:48;;;;;;;11.55;2.67;;;23.00;99.90;;;;;;5051812;28;20071;-67
2023/08/03 12:03:34;;;;;;;3.83;1.60;;;23.00;99.90;;;;;;5051799;28;20490;-67
2023/08/03 12:06:13;;;;;;;4.47;1.30;;;23.30;99.90;;;;;;5034354;28;20167;-67
2023/08/03 12:08:46;;;;;;;4.47;1.40;;;23.50;99.90;;;;;;5051852;28;20056;-67
2023/08/03 12:11:16;;;;;;;2.40;1.13;;;23.40;99.90;;;;;;5033970;28;20052;-67
2023/08/03 12:13:43;;;;;;;2.97;1.60;;;23.10;99.90;;;;;;5052223;28;20092;-68
2023/08/03 12:16:09;;;;;;;1.65;1.10;;;22.90;99.90;;;;;;5051954;28;20059;-68
2023/08/03 12:18:35;;;;;;;3.90;1.10;;;23.00;99.90;;;;;;5034308;28;20041;-68
2023/08/03 12:21:01;;;;;;;1.48;1.17;;;23.10;99.90;;;;;;5051865;28;20049;-68
2023/08/03 12:23:27;;;;;;;1.50;1.17;;;23.40;99.90;;;;;;5051827;28;20048;-67
2023/08/03 12:25:54;;;;;;;1.50;0.90;;;23.50;99.90;;;;;;5051682;28;20040;-67
2023/08/03 12:28:21;;;;;;;3.53;0.98;;;23.60;99.90;;;;;;5051468;28;20111;-68
2023/08/03 12:30:47;;;;;;;2.67;0.93;;;23.60;99.90;;;;;;5051606;28;20057;-66
2023/08/03 12:33:13;;;;;;;2.20;1.27;;;23.60;99.90;;;;;;5052313;28;20055;-67
2023/08/03 12:35:38;;;;;;;4.22;1.08;;;23.60;99.90;;;;;;5055264;28;20554;-66
2023/08/03 12:38:04;;;;;;;2.10;0.98;;;23.60;99.90;;;;;;5037965;28;20049;-67
2023/08/03 12:40:30;;;;;;;1.60;1.13;;;23.70;99.90;;;;;;5037500;28;20517;-68
2023/08/03 12:42:56;;;;;;;1.98;1.23;;;23.70;99.90;;;;;;5055533;28;20565;-68
2023/08/03 12:45:23;;;;;;;3.88;1.50;;;23.90;99.90;;;;;;5055234;28;20052;-66
2023/08/03 12:47:49;;;;;;;4.57;1.92;;;23.80;99.90;;;;;;5055169;28;20036;-66